createdAt,value
2023-01-17T00:05:09.004Z,26.08
2023-01-17T00:10:15.235Z,23.52
2023-01-17T00:15:19.973Z,20.05
2023-01-17T00:20:43.043Z,19.77
2023-01-17T00:26:03.342Z,19.35
2023-01-17T00:31:07.113Z,25.55
2023-01-17T00:36:09.727Z,25.23
2023-01-17T00:41:14.498Z,16.02
2023-01-17T00:46:36.089Z,13.43
2023-01-17T00:51:57.202Z,20.95
2023-01-17T00:57:19.059Z,18.58
2023-01-17T01:02:40.215Z,20.73
2023-01-17T01:08:00.587Z,16.88
2023-01-17T01:13:21.250Z,20.92
2023-01-17T01:18:41.912Z,20.42
2023-01-17T01:24:02.396Z,14.20
2023-01-17T01:29:23.211Z,17.63
2023-01-17T01:34:25.230Z,18.38
2023-01-17T01:39:28.089Z,20.42
2023-01-17T01:49:51.400Z,15.73
2023-01-17T01:54:58.700Z,14.10
2023-01-17T02:05:42.719Z,9.57
2023-01-17T02:10:44.852Z,19.90
2023-01-17T02:15:58.773Z,14.65
2023-01-17T02:21:34.633Z,18.52
2023-01-17T02:26:59.051Z,17.65
2023-01-17T02:32:25.817Z,15.60
2023-01-17T02:37:53.157Z,14.77
2023-01-17T02:43:02.934Z,16.33
2023-01-17T02:48:08.403Z,16.20
2023-01-17T02:53:37.703Z,13.48
2023-01-17T02:58:47.343Z,6.22
2023-01-17T03:03:56.301Z,13.02
2023-01-17T03:08:58.516Z,15.98
2023-01-17T03:14:00.527Z,16.52
2023-01-17T03:19:02.949Z,12.35
2023-01-17T03:24:05.180Z,18.48
2023-01-17T03:29:07.185Z,19.70
2023-01-17T03:34:09.578Z,14.95
2023-01-17T03:39:11.965Z,18.90
2023-01-17T03:44:14.030Z,16.23
2023-01-17T03:49:16.984Z,14.18
2023-01-17T03:54:19.711Z,10.00
2023-01-17T03:59:21.745Z,14.70
2023-01-17T04:04:24.267Z,17.77
2023-01-17T04:09:26.399Z,19.63
2023-01-17T04:14:28.945Z,14.00
2023-01-17T04:19:32.942Z,20.70
2023-01-17T04:24:35.268Z,16.42
2023-01-17T04:29:37.285Z,19.98
2023-01-17T04:34:39.375Z,22.48
2023-01-17T04:39:41.438Z,21.08
2023-01-17T04:44:43.453Z,25.67
2023-01-17T04:49:45.494Z,20.10
2023-01-17T04:54:50.301Z,11.35
2023-01-17T04:59:53.934Z,16.15
2023-01-17T05:04:55.971Z,14.13
2023-01-17T05:10:00.066Z,9.98
2023-01-17T05:15:02.286Z,15.85
2023-01-17T05:20:04.672Z,13.55
2023-01-17T05:25:07.218Z,13.23
2023-01-17T05:30:10.123Z,16.38
2023-01-17T05:40:14.079Z,11.02
2023-01-17T05:45:17.436Z,26.67
2023-01-17T05:50:26.264Z,15.88
2023-01-17T05:55:29.792Z,9.07
2023-01-17T06:00:32.681Z,8.98
2023-01-17T06:10:36.749Z,17.05
2023-01-17T06:15:39.877Z,6.25
2023-01-17T06:20:41.973Z,17.10
2023-01-17T06:25:46.113Z,13.45
2023-01-17T06:30:48.605Z,8.95
2023-01-17T06:35:52.085Z,10.13
2023-01-17T06:40:55.293Z,14.68
2023-01-17T06:45:57.274Z,16.48
2023-01-17T06:50:59.365Z,20.92
2023-01-17T06:56:01.469Z,18.10
2023-01-17T07:01:11.392Z,18.25
2023-01-17T07:06:13.635Z,13.98
2023-01-17T07:11:15.857Z,19.85
2023-01-17T07:16:17.976Z,12.98
2023-01-17T07:21:20.293Z,17.05
2023-01-17T07:26:22.234Z,19.65
2023-01-17T07:31:24.249Z,20.58
2023-01-17T07:36:26.291Z,17.55
2023-01-17T07:41:28.413Z,18.40
2023-01-17T07:46:30.462Z,16.35
2023-01-17T07:51:32.481Z,15.88
2023-01-17T07:56:35.228Z,15.05
2023-01-17T08:01:37.413Z,13.68
2023-01-17T08:06:43.677Z,18.42
2023-01-17T08:11:45.696Z,11.38
2023-01-17T08:16:47.679Z,17.35
2023-01-17T08:21:49.734Z,18.15
2023-01-17T08:26:51.838Z,18.63
2023-01-17T08:31:54.478Z,11.50
2023-01-17T08:36:56.577Z,13.05
2023-01-17T08:41:58.544Z,10.75
2023-01-17T08:47:01.666Z,11.70
2023-01-17T08:52:03.803Z,11.30
2023-01-17T08:57:05.933Z,9.43
2023-01-17T09:02:15.256Z,11.63
2023-01-17T09:07:19.225Z,12.02
2023-01-17T09:12:22.628Z,12.57
2023-01-17T09:17:24.707Z,11.77
2023-01-17T09:22:27.424Z,13.57
2023-01-17T09:27:29.520Z,12.20
2023-01-17T09:32:31.592Z,10.70
2023-01-17T09:37:33.703Z,9.07
2023-01-17T09:42:39.968Z,10.93
2023-01-17T09:47:45.438Z,10.50
2023-01-17T09:52:47.794Z,8.50
2023-01-17T09:58:12.380Z,10.82
2023-01-17T10:03:52.911Z,11.85
2023-01-17T10:09:20.779Z,11.35
2023-01-17T10:14:29.305Z,9.15
2023-01-17T10:20:18.415Z,10.10
2023-01-17T10:25:33.549Z,10.93
2023-01-17T10:30:42.920Z,11.02
2023-01-17T10:35:57.290Z,9.52
2023-01-17T10:41:15.070Z,13.82
2023-01-17T10:46:28.885Z,10.68
2023-01-17T10:51:43.401Z,10.52
2023-01-17T10:56:45.474Z,8.05
2023-01-17T11:01:49.196Z,7.57
2023-01-17T11:07:15.047Z,9.23
2023-01-17T11:12:33.584Z,11.25
2023-01-17T11:17:50.381Z,7.75
2023-01-17T11:23:19.277Z,9.48
2023-01-17T11:28:33.197Z,9.32
2023-01-17T11:33:48.627Z,19.10
2023-01-17T11:39:07.380Z,34.92
2023-01-17T11:44:30.728Z,24.80
2023-01-17T11:49:32.817Z,12.77
2023-01-17T11:54:40.792Z,3.90
2023-01-17T11:59:44.083Z,8.43
2023-01-17T12:04:55.784Z,6.13
2023-01-17T12:10:05.554Z,8.40
2023-01-17T12:15:22.511Z,7.30
2023-01-17T12:21:04.401Z,6.72
2023-01-17T12:26:57.463Z,5.75
2023-01-17T12:32:17.017Z,6.75
2023-01-17T12:37:41.622Z,7.65
2023-01-17T12:42:51.827Z,8.63
2023-01-17T12:48:01.684Z,5.97
2023-01-17T12:53:17.423Z,7.32
2023-01-17T12:58:25.946Z,8.77
2023-01-17T13:03:56.073Z,8.30
2023-01-17T13:09:02.968Z,13.23
2023-01-17T13:14:09.281Z,21.15
2023-01-17T13:19:20.481Z,5.10
2023-01-17T13:24:45.005Z,5.72
2023-01-17T13:30:15.748Z,2.45
2023-01-17T13:36:15.178Z,4.75
2023-01-17T13:41:45.258Z,6.53
2023-01-17T13:47:19.373Z,5.13
2023-01-17T13:52:21.359Z,7.30
2023-01-17T13:57:43.904Z,3.75
2023-01-17T14:02:46.807Z,5.47
2023-01-17T14:08:02.393Z,6.88
2023-01-17T14:13:25.119Z,2.28
2023-01-17T14:18:46.175Z,4.75
2023-01-17T14:23:48.836Z,4.13
2023-01-17T14:28:52.323Z,1.92
2023-01-17T14:33:54.642Z,4.43
2023-01-17T14:38:56.890Z,2.47
2023-01-17T14:44:01.443Z,19.70
2023-01-17T14:49:07.178Z,19.00
2023-01-17T14:54:21.447Z,23.05
2023-01-17T14:59:23.537Z,17.25
2023-01-17T15:04:28.165Z,12.68
2023-01-17T15:09:35.562Z,13.15
2023-01-17T15:14:42.937Z,7.32
2023-01-17T15:19:48.415Z,16.40
2023-01-17T15:24:51.105Z,10.07
2023-01-17T15:29:54.459Z,6.15
2023-01-17T15:34:57.411Z,8.25
2023-01-17T15:40:21.035Z,7.63
2023-01-17T15:45:31.103Z,12.35
2023-01-17T15:50:39.970Z,11.77
2023-01-17T15:55:42.040Z,9.52
2023-01-17T16:00:45.417Z,6.22
2023-01-17T16:05:48.619Z,21.20
2023-01-17T16:10:59.525Z,52.17
2023-01-17T16:16:24.318Z,7.97
2023-01-17T16:21:31.160Z,10.88
2023-01-17T16:26:33.384Z,13.95
2023-01-17T16:31:35.667Z,15.77
2023-01-17T16:36:37.791Z,8.23
2023-01-17T16:41:39.914Z,4.15
2023-01-17T16:46:42.125Z,7.95
2023-01-17T16:51:47.393Z,7.70
2023-01-17T16:56:49.663Z,8.93
2023-01-17T17:01:53.393Z,6.03
2023-01-17T17:06:55.467Z,10.05
2023-01-17T17:11:57.459Z,16.95
2023-01-17T17:17:02.531Z,7.72
2023-01-17T17:22:07.056Z,11.40
2023-01-17T17:27:09.417Z,11.90
2023-01-17T17:32:12.322Z,14.43
2023-01-17T17:37:16.452Z,56.75
2023-01-17T17:42:20.471Z,32.80
2023-01-17T17:47:24.617Z,30.58
2023-01-17T17:52:31.371Z,25.90
2023-01-17T17:57:33.521Z,19.80
2023-01-17T18:02:35.757Z,24.60
2023-01-17T18:07:38.564Z,16.33
2023-01-17T18:12:41.419Z,33.50
2023-01-17T18:22:46.915Z,55.63
2023-01-17T18:27:49.758Z,45.65
2023-01-17T18:37:55.009Z,32.78
2023-01-17T18:48:00.696Z,31.38
2023-01-17T18:53:03.410Z,30.20
2023-01-17T18:58:06.166Z,24.48
2023-01-17T19:03:08.919Z,27.60
2023-01-17T19:08:11.713Z,32.80
2023-01-17T19:13:16.232Z,27.02
2023-01-17T19:18:19.456Z,18.52
2023-01-17T19:23:23.738Z,28.40
2023-01-17T19:28:27.347Z,23.55
2023-01-17T19:33:29.909Z,13.40
2023-01-17T19:38:35.447Z,23.92
2023-01-17T19:43:39.017Z,29.45
2023-01-17T19:48:46.443Z,39.20
2023-01-17T19:53:49.414Z,26.70
2023-01-17T19:58:52.676Z,28.85
2023-01-17T20:03:57.932Z,35.47
2023-01-17T20:09:01.390Z,26.67
2023-01-17T20:14:06.011Z,41.22
2023-01-17T20:19:08.705Z,35.90
2023-01-17T20:24:12.910Z,31.85
2023-01-17T20:29:19.701Z,30.10
2023-01-17T20:34:26.561Z,32.25
2023-01-17T20:39:33.262Z,24.17
2023-01-17T20:44:36.259Z,27.27
2023-01-17T20:54:43.667Z,22.10
2023-01-17T20:59:46.964Z,22.23
2023-01-17T21:04:50.349Z,24.83
2023-01-17T21:09:53.404Z,24.30
2023-01-17T21:14:55.889Z,29.05
2023-01-17T21:19:59.479Z,38.03
2023-01-17T21:25:01.550Z,25.50
2023-01-17T21:30:03.906Z,27.90
2023-01-17T21:35:07.893Z,25.63
2023-01-17T21:40:10.847Z,23.40
2023-01-17T21:45:12.894Z,27.35
2023-01-17T21:50:28.452Z,23.33
2023-01-17T21:55:53.322Z,24.17
2023-01-17T22:01:07.933Z,21.00
2023-01-17T22:06:10.663Z,23.25
2023-01-17T22:11:15.487Z,22.45
2023-01-17T22:16:20.759Z,24.58
2023-01-17T22:21:25.048Z,23.33
2023-01-17T22:26:29.913Z,22.55
2023-01-17T22:31:31.999Z,21.23
2023-01-17T22:36:34.394Z,20.13
2023-01-17T22:41:38.439Z,19.85
2023-01-17T22:46:41.622Z,21.70
2023-01-17T22:51:43.613Z,23.67
2023-01-17T22:56:45.642Z,24.25
2023-01-17T23:01:47.623Z,26.02
2023-01-17T23:06:49.607Z,23.58
2023-01-17T23:11:54.331Z,33.67
2023-01-17T23:17:17.084Z,31.48
2023-01-17T23:22:22.139Z,33.53
2023-01-17T23:27:44.538Z,31.42
2023-01-17T23:32:49.813Z,27.60
2023-01-17T23:38:10.601Z,27.48
2023-01-17T23:43:24.728Z,33.65
2023-01-17T23:48:27.165Z,24.80
2023-01-17T23:53:29.258Z,30.10
2023-01-17T23:58:31.428Z,33.80
